sensor_id;sensor_type;location;lat;lon;timestamp;temperature;humidity
63383;DHT22;49512;48.744;9.176;2023-02-27T00:02:12;11.80;99.90
63383;DHT22;49512;48.744;9.176;2023-02-27T00:04:37;11.80;99.90
63383;DHT22;49512;48.744;9.176;2023-02-27T00:07:02;11.80;99.90
63383;DHT22;49512;48.744;9.176;2023-02-27T00:09:28;11.90;99.90
63383;DHT22;49512;48.744;9.176;2023-02-27T00:11:54;11.80;99.90
63383;DHT22;49512;48.744;9.176;2023-02-27T00:14:20;11.90;99.90
63383;DHT22;49512;48.744;9.176;2023-02-27T00:16:46;11.80;99.90
63383;DHT22;49512;48.744;9.176;2023-02-27T00:19:12;11.80;99.90
63383;DHT22;49512;48.744;9.176;2023-02-27T00:21:37;11.70;99.90
63383;DHT22;49512;48.744;9.176;2023-02-27T00:24:03;11.80;99.90
63383;DHT22;49512;48.744;9.176;2023-02-27T00:26:28;11.80;99.90
63383;DHT22;49512;48.744;9.176;2023-02-27T00:28:54;11.70;99.90
63383;DHT22;49512;48.744;9.176;2023-02-27T00:31:19;11.80;99.90
63383;DHT22;49512;48.744;9.176;2023-02-27T00:33:45;11.80;99.90
63383;DHT22;49512;48.744;9.176;2023-02-27T00:38:36;11.80;99.90
63383;DHT22;49512;48.744;9.176;2023-02-27T00:41:02;11.80;99.90
63383;DHT22;49512;48.744;9.176;2023-02-27T00:43:28;11.80;99.90
63383;DHT22;49512;48.744;9.176;2023-02-27T00:45:53;11.80;99.90
63383;DHT22;49512;48.744;9.176;2023-02-27T00:48:19;11.70;99.90
63383;DHT22;49512;48.744;9.176;2023-02-27T00:50:44;11.70;99.90
63383;DHT22;49512;48.744;9.176;2023-02-27T00:53:10;11.70;99.90
63383;DHT22;49512;48.744;9.176;2023-02-27T00:55:35;11.70;99.90
63383;DHT22;49512;48.744;9.176;2023-02-27T00:58:01;11.70;99.90
63383;DHT22;49512;48.744;9.176;2023-02-27T01:00:26;11.70;99.90
63383;DHT22;49512;48.744;9.176;2023-02-27T01:02:52;11.70;99.90
63383;DHT22;49512;48.744;9.176;2023-02-27T01:05:17;11.70;99.90
63383;DHT22;49512;48.744;9.176;2023-02-27T01:07:43;11.70;99.90
63383;DHT22;49512;48.744;9.176;2023-02-27T01:10:09;11.70;99.90
63383;DHT22;49512;48.744;9.176;2023-02-27T01:12:34;11.80;99.90
63383;DHT22;49512;48.744;9.176;2023-02-27T01:15:00;11.70;99.90
63383;DHT22;49512;48.744;9.176;2023-02-27T01:17:25;11.70;99.90
63383;DHT22;49512;48.744;9.176;2023-02-27T01:19:51;11.70;99.90
63383;DHT22;49512;48.744;9.176;2023-02-27T01:22:16;11.70;99.90
63383;DHT22;49512;48.744;9.176;2023-02-27T01:24:42;11.70;99.90
63383;DHT22;49512;48.744;9.176;2023-02-27T01:27:08;11.70;99.90
63383;DHT22;49512;48.744;9.176;2023-02-27T01:29:33;11.70;99.90
63383;DHT22;49512;48.744;9.176;2023-02-27T01:31:59;11.70;99.90
63383;DHT22;49512;48.744;9.176;2023-02-27T01:34:24;11.70;99.90
63383;DHT22;49512;48.744;9.176;2023-02-27T01:36:49;11.70;99.90
63383;DHT22;49512;48.744;9.176;2023-02-27T01:39:15;11.70;99.90
63383;DHT22;49512;48.744;9.176;2023-02-27T01:41:40;11.70;99.90
63383;DHT22;49512;48.744;9.176;2023-02-27T01:44:07;11.70;99.90
63383;DHT22;49512;48.744;9.176;2023-02-27T01:46:33;11.70;99.90
63383;DHT22;49512;48.744;9.176;2023-02-27T01:51:29;11.70;99.90
63383;DHT22;49512;48.744;9.176;2023-02-27T01:53:56;11.70;99.90
63383;DHT22;49512;48.744;9.176;2023-02-27T01:56:23;11.70;99.90
63383;DHT22;49512;48.744;9.176;2023-02-27T01:58:50;11.70;99.90
63383;DHT22;49512;48.744;9.176;2023-02-27T02:01:16;11.70;99.90
63383;DHT22;49512;48.744;9.176;2023-02-27T02:06:14;11.70;99.90
63383;DHT22;49512;48.744;9.176;2023-02-27T02:08:46;11.60;99.90
63383;DHT22;49512;48.744;9.176;2023-02-27T02:11:14;11.70;99.90
63383;DHT22;49512;48.744;9.176;2023-02-27T02:13:40;11.60;99.90
63383;DHT22;49512;48.744;9.176;2023-02-27T02:18:56;11.60;99.90
63383;DHT22;49512;48.744;9.176;2023-02-27T02:22:14;11.60;99.90
63383;DHT22;49512;48.744;9.176;2023-02-27T02:37:32;11.60;99.90
63383;DHT22;49512;48.744;9.176;2023-02-27T02:42:34;11.60;99.90
63383;DHT22;49512;48.744;9.176;2023-02-27T02:47:32;11.60;99.90
63383;DHT22;49512;48.744;9.176;2023-02-27T02:55:01;11.60;99.90
63383;DHT22;49512;48.744;9.176;2023-02-27T02:57:44;11.60;99.90
63383;DHT22;49512;48.744;9.176;2023-02-27T03:02:44;11.60;99.90
63383;DHT22;49512;48.744;9.176;2023-02-27T03:05:14;13.00;99.90
63383;DHT22;49512;48.744;9.176;2023-02-27T03:10:11;11.60;99.90
63383;DHT22;49512;48.744;9.176;2023-02-27T03:12:38;11.60;99.90
63383;DHT22;49512;48.744;9.176;2023-02-27T03:15:05;11.60;99.90
63383;DHT22;49512;48.744;9.176;2023-02-27T03:18:19;11.60;99.90
63383;DHT22;49512;48.744;9.176;2023-02-27T03:20:21;11.60;99.90
63383;DHT22;49512;48.744;9.176;2023-02-27T03:22:49;11.60;99.90
63383;DHT22;49512;48.744;9.176;2023-02-27T03:25:16;11.60;99.90
63383;DHT22;49512;48.744;9.176;2023-02-27T03:27:43;11.60;99.90
63383;DHT22;49512;48.744;9.176;2023-02-27T03:30:57;11.60;99.90
63383;DHT22;49512;48.744;9.176;2023-02-27T03:35:23;11.50;99.90
63383;DHT22;49512;48.744;9.176;2023-02-27T03:38:00;11.60;99.90
63383;DHT22;49512;48.744;9.176;2023-02-27T03:40:33;11.60;99.90
63383;DHT22;49512;48.744;9.176;2023-02-27T03:45:33;11.50;99.90
63383;DHT22;49512;48.744;9.176;2023-02-27T03:48:00;11.50;99.90
63383;DHT22;49512;48.744;9.176;2023-02-27T03:50:26;11.50;99.90
63383;DHT22;49512;48.744;9.176;2023-02-27T03:52:51;11.50;99.90
63383;DHT22;49512;48.744;9.176;2023-02-27T03:55:50;11.60;99.90
63383;DHT22;49512;48.744;9.176;2023-02-27T03:58:09;11.50;99.90
63383;DHT22;49512;48.744;9.176;2023-02-27T04:00:34;11.50;99.90
63383;DHT22;49512;48.744;9.176;2023-02-27T04:03:00;11.50;99.90
63383;DHT22;49512;48.744;9.176;2023-02-27T04:05:26;11.50;99.90
63383;DHT22;49512;48.744;9.176;2023-02-27T04:15:57;11.50;99.90
63383;DHT22;49512;48.744;9.176;2023-02-27T04:21:14;11.50;99.90
63383;DHT22;49512;48.744;9.176;2023-02-27T04:28:41;11.50;99.90
63383;DHT22;49512;48.744;9.176;2023-02-27T04:31:11;11.50;99.90
63383;DHT22;49512;48.744;9.176;2023-02-27T04:36:09;11.50;99.90
63383;DHT22;49512;48.744;9.176;2023-02-27T04:38:37;11.50;99.90
63383;DHT22;49512;48.744;9.176;2023-02-27T04:41:20;11.50;99.90
63383;DHT22;49512;48.744;9.176;2023-02-27T04:43:47;11.50;99.90
63383;DHT22;49512;48.744;9.176;2023-02-27T04:46:15;11.50;99.90
63383;DHT22;49512;48.744;9.176;2023-02-27T04:48:47;11.50;99.90
63383;DHT22;49512;48.744;9.176;2023-02-27T04:51:14;11.50;99.90
63383;DHT22;49512;48.744;9.176;2023-02-27T04:57:05;11.50;99.90
63383;DHT22;49512;48.744;9.176;2023-02-27T04:59:05;11.50;99.90
63383;DHT22;49512;48.744;9.176;2023-02-27T05:01:39;11.40;99.90
63383;DHT22;49512;48.744;9.176;2023-02-27T05:04:06;11.40;99.90
63383;DHT22;49512;48.744;9.176;2023-02-27T05:06:34;12.10;99.90
63383;DHT22;49512;48.744;9.176;2023-02-27T05:11:53;11.40;99.90
63383;DHT22;49512;48.744;9.176;2023-02-27T05:20:08;11.40;99.90
63383;DHT22;49512;48.744;9.176;2023-02-27T05:22:41;11.40;99.90
63383;DHT22;49512;48.744;9.176;2023-02-27T05:25:14;11.40;99.90
63383;DHT22;49512;48.744;9.176;2023-02-27T05:27:53;11.40;99.90
63383;DHT22;49512;48.744;9.176;2023-02-27T05:30:22;11.40;99.90
63383;DHT22;49512;48.744;9.176;2023-02-27T05:32:55;11.40;99.90
63383;DHT22;49512;48.744;9.176;2023-02-27T05:37:51;11.40;99.90
63383;DHT22;49512;48.744;9.176;2023-02-27T05:40:24;11.40;99.90
63383;DHT22;49512;48.744;9.176;2023-02-27T05:42:57;11.40;99.90
63383;DHT22;49512;48.744;9.176;2023-02-27T05:45:25;11.40;99.90
63383;DHT22;49512;48.744;9.176;2023-02-27T05:47:54;11.40;99.90
63383;DHT22;49512;48.744;9.176;2023-02-27T05:50:29;11.40;99.90
63383;DHT22;49512;48.744;9.176;2023-02-27T05:52:56;11.40;99.90
63383;DHT22;49512;48.744;9.176;2023-02-27T05:55:23;11.40;99.90
63383;DHT22;49512;48.744;9.176;2023-02-27T05:57:52;11.40;99.90
63383;DHT22;49512;48.744;9.176;2023-02-27T06:00:25;11.40;99.90
63383;DHT22;49512;48.744;9.176;2023-02-27T06:02:53;11.40;99.90
63383;DHT22;49512;48.744;9.176;2023-02-27T06:05:19;11.40;99.90
63383;DHT22;49512;48.744;9.176;2023-02-27T06:07:45;11.40;99.90
63383;DHT22;49512;48.744;9.176;2023-02-27T06:10:14;11.40;99.90
63383;DHT22;49512;48.744;9.176;2023-02-27T06:12:40;11.40;99.90
63383;DHT22;49512;48.744;9.176;2023-02-27T06:15:05;11.30;99.90
63383;DHT22;49512;48.744;9.176;2023-02-27T06:17:31;11.30;99.90
63383;DHT22;49512;48.744;9.176;2023-02-27T06:19:56;11.30;99.90
63383;DHT22;49512;48.744;9.176;2023-02-27T06:22:22;11.20;99.90
63383;DHT22;49512;48.744;9.176;2023-02-27T06:24:47;11.20;99.90
63383;DHT22;49512;48.744;9.176;2023-02-27T06:27:13;11.20;99.80
63383;DHT22;49512;48.744;9.176;2023-02-27T06:29:38;11.20;99.40
63383;DHT22;49512;48.744;9.176;2023-02-27T06:32:04;11.20;99.20
63383;DHT22;49512;48.744;9.176;2023-02-27T06:34:30;11.10;98.90
63383;DHT22;49512;48.744;9.176;2023-02-27T06:36:55;11.10;98.60
63383;DHT22;49512;48.744;9.176;2023-02-27T06:39:21;11.10;97.90
63383;DHT22;49512;48.744;9.176;2023-02-27T06:41:46;11.10;97.90
63383;DHT22;49512;48.744;9.176;2023-02-27T06:44:12;11.10;97.50
63383;DHT22;49512;48.744;9.176;2023-02-27T06:46:37;11.10;97.00
63383;DHT22;49512;48.744;9.176;2023-02-27T06:49:03;11.10;96.50
63383;DHT22;49512;48.744;9.176;2023-02-27T06:51:28;11.10;96.20
63383;DHT22;49512;48.744;9.176;2023-02-27T06:53:54;11.10;95.80
63383;DHT22;49512;48.744;9.176;2023-02-27T06:56:20;11.10;95.60
63383;DHT22;49512;48.744;9.176;2023-02-27T06:58:45;11.00;95.10
63383;DHT22;49512;48.744;9.176;2023-02-27T07:01:11;11.00;94.80
63383;DHT22;49512;48.744;9.176;2023-02-27T07:03:37;11.00;94.60
63383;DHT22;49512;48.744;9.176;2023-02-27T07:06:03;11.00;94.30
63383;DHT22;49512;48.744;9.176;2023-02-27T07:08:28;11.00;93.90
63383;DHT22;49512;48.744;9.176;2023-02-27T07:10:54;11.00;93.80
63383;DHT22;49512;48.744;9.176;2023-02-27T07:13:20;11.00;93.30
63383;DHT22;49512;48.744;9.176;2023-02-27T07:15:45;11.00;92.90
63383;DHT22;49512;48.744;9.176;2023-02-27T07:18:11;11.00;92.70
63383;DHT22;49512;48.744;9.176;2023-02-27T07:20:36;11.00;92.60
63383;DHT22;49512;48.744;9.176;2023-02-27T07:23:02;10.90;92.40
63383;DHT22;49512;48.744;9.176;2023-02-27T07:25:27;11.00;92.20
63383;DHT22;49512;48.744;9.176;2023-02-27T07:27:53;10.90;92.00
63383;DHT22;49512;48.744;9.176;2023-02-27T07:30:18;11.00;91.80
63383;DHT22;49512;48.744;9.176;2023-02-27T07:32:44;10.90;91.80
63383;DHT22;49512;48.744;9.176;2023-02-27T07:35:10;10.90;91.60
63383;DHT22;49512;48.744;9.176;2023-02-27T07:37:36;11.00;91.40
63383;DHT22;49512;48.744;9.176;2023-02-27T07:40:02;10.90;91.00
63383;DHT22;49512;48.744;9.176;2023-02-27T07:42:28;10.80;91.00
63383;DHT22;49512;48.744;9.176;2023-02-27T07:44:53;10.80;90.80
63383;DHT22;49512;48.744;9.176;2023-02-27T07:47:19;10.90;90.70
63383;DHT22;49512;48.744;9.176;2023-02-27T07:49:44;10.90;90.40
63383;DHT22;49512;48.744;9.176;2023-02-27T07:52:10;10.90;90.30
63383;DHT22;49512;48.744;9.176;2023-02-27T07:54:35;10.90;90.30
63383;DHT22;49512;48.744;9.176;2023-02-27T07:57:02;10.90;90.30
63383;DHT22;49512;48.744;9.176;2023-02-27T07:59:28;10.90;90.10
63383;DHT22;49512;48.744;9.176;2023-02-27T08:01:53;10.90;90.00
63383;DHT22;49512;48.744;9.176;2023-02-27T08:04:19;10.90;89.80
63383;DHT22;49512;48.744;9.176;2023-02-27T08:06:44;10.90;89.50
63383;DHT22;49512;48.744;9.176;2023-02-27T08:09:10;10.90;89.10
63383;DHT22;49512;48.744;9.176;2023-02-27T08:11:35;10.90;89.10
63383;DHT22;49512;48.744;9.176;2023-02-27T08:14:01;10.90;88.90
63383;DHT22;49512;48.744;9.176;2023-02-27T08:16:26;10.90;89.00
63383;DHT22;49512;48.744;9.176;2023-02-27T08:18:52;10.90;88.60
63383;DHT22;49512;48.744;9.176;2023-02-27T08:21:17;10.90;88.30
63383;DHT22;49512;48.744;9.176;2023-02-27T08:23:43;10.80;88.00
63383;DHT22;49512;48.744;9.176;2023-02-27T08:26:08;10.80;87.90
63383;DHT22;49512;48.744;9.176;2023-02-27T08:28:34;10.90;87.60
63383;DHT22;49512;48.744;9.176;2023-02-27T08:30:59;10.90;87.50
63383;DHT22;49512;48.744;9.176;2023-02-27T08:33:25;10.80;87.30
63383;DHT22;49512;48.744;9.176;2023-02-27T08:35:50;10.80;86.70
63383;DHT22;49512;48.744;9.176;2023-02-27T08:38:18;10.80;86.60
63383;DHT22;49512;48.744;9.176;2023-02-27T08:40:44;10.80;86.20
63383;DHT22;49512;48.744;9.176;2023-02-27T08:43:09;10.80;86.40
63383;DHT22;49512;48.744;9.176;2023-02-27T08:45:35;10.80;86.20
63383;DHT22;49512;48.744;9.176;2023-02-27T08:48:00;10.80;86.10
63383;DHT22;49512;48.744;9.176;2023-02-27T08:50:26;10.80;86.00
63383;DHT22;49512;48.744;9.176;2023-02-27T08:55:17;10.80;85.60
63383;DHT22;49512;48.744;9.176;2023-02-27T08:57:43;10.80;84.80
63383;DHT22;49512;48.744;9.176;2023-02-27T09:00:09;10.80;84.90
63383;DHT22;49512;48.744;9.176;2023-02-27T09:02:34;10.80;87.30
63383;DHT22;49512;48.744;9.176;2023-02-27T09:05:00;10.80;88.00
63383;DHT22;49512;48.744;9.176;2023-02-27T09:07:37;10.80;90.70
63383;DHT22;49512;48.744;9.176;2023-02-27T09:10:09;10.80;91.60
63383;DHT22;49512;48.744;9.176;2023-02-27T09:12:35;10.90;92.20
63383;DHT22;49512;48.744;9.176;2023-02-27T09:15:00;10.80;93.00
63383;DHT22;49512;48.744;9.176;2023-02-27T09:17:26;10.80;93.30
63383;DHT22;49512;48.744;9.176;2023-02-27T09:19:54;10.90;94.20
63383;DHT22;49512;48.744;9.176;2023-02-27T09:22:20;10.80;94.40
63383;DHT22;49512;48.744;9.176;2023-02-27T09:24:45;10.80;94.80
63383;DHT22;49512;48.744;9.176;2023-02-27T09:27:11;10.90;94.90
63383;DHT22;49512;48.744;9.176;2023-02-27T09:29:36;10.90;95.20
63383;DHT22;49512;48.744;9.176;2023-02-27T09:32:02;10.90;95.70
63383;DHT22;49512;48.744;9.176;2023-02-27T09:34:28;10.90;95.70
63383;DHT22;49512;48.744;9.176;2023-02-27T09:37:02;10.90;96.50
63383;DHT22;49512;48.744;9.176;2023-02-27T09:39:49;10.90;97.00
63383;DHT22;49512;48.744;9.176;2023-02-27T09:42:18;10.90;97.50
63383;DHT22;49512;48.744;9.176;2023-02-27T09:44:48;10.90;97.50
63383;DHT22;49512;48.744;9.176;2023-02-27T09:47:28;10.90;97.80
63383;DHT22;49512;48.744;9.176;2023-02-27T09:52:20;10.90;98.90
63383;DHT22;49512;48.744;9.176;2023-02-27T09:54:45;10.90;99.00
63383;DHT22;49512;48.744;9.176;2023-02-27T10:00:15;10.90;99.30
63383;DHT22;49512;48.744;9.176;2023-02-27T10:05:49;10.90;99.50
63383;DHT22;49512;48.744;9.176;2023-02-27T10:11:03;10.90;99.60
63383;DHT22;49512;48.744;9.176;2023-02-27T10:13:35;10.90;99.20
63383;DHT22;49512;48.744;9.176;2023-02-27T10:16:08;10.80;99.30
63383;DHT22;49512;48.744;9.176;2023-02-27T10:18:40;10.90;99.70
63383;DHT22;49512;48.744;9.176;2023-02-27T10:21:15;10.90;99.10
63383;DHT22;49512;48.744;9.176;2023-02-27T10:26:18;10.90;99.60
63383;DHT22;49512;48.744;9.176;2023-02-27T10:28:44;10.90;99.60
63383;DHT22;49512;48.744;9.176;2023-02-27T10:31:11;10.90;97.90
63383;DHT22;49512;48.744;9.176;2023-02-27T10:33:40;10.90;97.10
63383;DHT22;49512;48.744;9.176;2023-02-27T10:36:06;10.90;97.00
63383;DHT22;49512;48.744;9.176;2023-02-27T10:38:40;10.90;97.00
63383;DHT22;49512;48.744;9.176;2023-02-27T10:41:06;10.90;97.00
63383;DHT22;49512;48.744;9.176;2023-02-27T10:43:34;10.90;97.10
63383;DHT22;49512;48.744;9.176;2023-02-27T10:46:01;10.90;97.20
63383;DHT22;49512;48.744;9.176;2023-02-27T10:48:27;10.90;97.80
63383;DHT22;49512;48.744;9.176;2023-02-27T10:50:53;10.90;98.10
63383;DHT22;49512;48.744;9.176;2023-02-27T10:53:37;10.90;98.50
63383;DHT22;49512;48.744;9.176;2023-02-27T10:56:04;10.90;98.80
63383;DHT22;49512;48.744;9.176;2023-02-27T10:58:31;10.90;99.10
63383;DHT22;49512;48.744;9.176;2023-02-27T11:00:58;10.90;99.70
63383;DHT22;49512;48.744;9.176;2023-02-27T11:06:07;11.00;99.90
63383;DHT22;49512;48.744;9.176;2023-02-27T11:08:34;11.00;99.90
63383;DHT22;49512;48.744;9.176;2023-02-27T11:11:03;11.00;99.90
63383;DHT22;49512;48.744;9.176;2023-02-27T11:13:31;11.00;99.90
63383;DHT22;49512;48.744;9.176;2023-02-27T11:16:02;10.90;99.90
63383;DHT22;49512;48.744;9.176;2023-02-27T11:18:28;11.00;99.90
63383;DHT22;49512;48.744;9.176;2023-02-27T11:23:48;11.00;99.90
63383;DHT22;49512;48.744;9.176;2023-02-27T11:26:15;11.00;99.90
63383;DHT22;49512;48.744;9.176;2023-02-27T11:28:41;10.90;99.90
63383;DHT22;49512;48.744;9.176;2023-02-27T11:31:13;11.00;99.90
63383;DHT22;49512;48.744;9.176;2023-02-27T11:33:53;11.00;99.90
63383;DHT22;49512;48.744;9.176;2023-02-27T11:36:20;11.00;99.90
63383;DHT22;49512;48.744;9.176;2023-02-27T11:38:51;11.00;99.90
63383;DHT22;49512;48.744;9.176;2023-02-27T11:41:17;11.00;99.90
63383;DHT22;49512;48.744;9.176;2023-02-27T11:43:47;11.00;99.90
63383;DHT22;49512;48.744;9.176;2023-02-27T11:46:18;11.00;99.90
63383;DHT22;49512;48.744;9.176;2023-02-27T11:51:36;11.00;99.90
63383;DHT22;49512;48.744;9.176;2023-02-27T11:54:25;11.00;99.90
63383;DHT22;49512;48.744;9.176;2023-02-27T11:57:23;11.00;99.90
63383;DHT22;49512;48.744;9.176;2023-02-27T12:00:53;11.00;99.90
63383;DHT22;49512;48.744;9.176;2023-02-27T12:05:34;11.00;99.50
63383;DHT22;49512;48.744;9.176;2023-02-27T12:08:09;11.00;99.40
63383;DHT22;49512;48.744;9.176;2023-02-27T12:10:50;11.00;99.10
63383;DHT22;49512;48.744;9.176;2023-02-27T12:13:28;11.00;99.20
63383;DHT22;49512;48.744;9.176;2023-02-27T12:16:01;11.00;99.00
63383;DHT22;49512;48.744;9.176;2023-02-27T12:18:49;11.00;99.30
63383;DHT22;49512;48.744;9.176;2023-02-27T12:21:32;11.00;99.40
63383;DHT22;49512;48.744;9.176;2023-02-27T12:24:01;11.00;99.40
63383;DHT22;49512;48.744;9.176;2023-02-27T12:26:39;11.00;99.20
63383;DHT22;49512;48.744;9.176;2023-02-27T12:34:24;11.00;99.10
63383;DHT22;49512;48.744;9.176;2023-02-27T12:37:01;11.00;99.00
63383;DHT22;49512;48.744;9.176;2023-02-27T12:39:32;11.00;98.80
63383;DHT22;49512;48.744;9.176;2023-02-27T12:44:53;11.00;98.70
63383;DHT22;49512;48.744;9.176;2023-02-27T12:50:21;11.00;98.80
63383;DHT22;49512;48.744;9.176;2023-02-27T12:55:16;11.00;98.90
63383;DHT22;49512;48.744;9.176;2023-02-27T13:03:15;10.90;98.90
63383;DHT22;49512;48.744;9.176;2023-02-27T13:05:46;11.00;99.00
63383;DHT22;49512;48.744;9.176;2023-02-27T13:14:10;11.00;99.00
63383;DHT22;49512;48.744;9.176;2023-02-27T13:19:13;11.00;99.00
63383;DHT22;49512;48.744;9.176;2023-02-27T13:24:24;11.00;99.30
63383;DHT22;49512;48.744;9.176;2023-02-27T13:26:59;11.00;99.00
63383;DHT22;49512;48.744;9.176;2023-02-27T13:29:35;11.00;99.20
63383;DHT22;49512;48.744;9.176;2023-02-27T13:32:11;11.00;99.50
63383;DHT22;49512;48.744;9.176;2023-02-27T13:34:40;11.00;99.60
63383;DHT22;49512;48.744;9.176;2023-02-27T13:37:07;11.00;99.90
63383;DHT22;49512;48.744;9.176;2023-02-27T13:42:52;11.00;99.80
63383;DHT22;49512;48.744;9.176;2023-02-27T13:45:05;11.00;99.90
63383;DHT22;49512;48.744;9.176;2023-02-27T13:47:49;11.00;99.90
63383;DHT22;49512;48.744;9.176;2023-02-27T13:52:45;11.00;99.90
63383;DHT22;49512;48.744;9.176;2023-02-27T13:58:14;11.00;99.80
63383;DHT22;49512;48.744;9.176;2023-02-27T14:00:40;11.00;99.80
63383;DHT22;49512;48.744;9.176;2023-02-27T14:05:41;11.00;99.80
63383;DHT22;49512;48.744;9.176;2023-02-27T14:08:08;10.90;99.80
63383;DHT22;49512;48.744;9.176;2023-02-27T14:10:38;11.00;99.80
63383;DHT22;49512;48.744;9.176;2023-02-27T14:13:05;11.00;99.80
63383;DHT22;49512;48.744;9.176;2023-02-27T14:17:57;11.00;99.80
63383;DHT22;49512;48.744;9.176;2023-02-27T14:25:52;10.90;99.70
63383;DHT22;49512;48.744;9.176;2023-02-27T14:28:23;11.00;99.80
63383;DHT22;49512;48.744;9.176;2023-02-27T14:30:51;10.90;99.90
63383;DHT22;49512;48.744;9.176;2023-02-27T14:33:19;10.90;99.80
63383;DHT22;49512;48.744;9.176;2023-02-27T14:35:46;10.90;99.80
63383;DHT22;49512;48.744;9.176;2023-02-27T14:38:14;10.90;99.80
63383;DHT22;49512;48.744;9.176;2023-02-27T14:40:46;11.00;99.80
63383;DHT22;49512;48.744;9.176;2023-02-27T14:45:42;10.90;99.80
63383;DHT22;49512;48.744;9.176;2023-02-27T14:48:08;10.90;99.80
63383;DHT22;49512;48.744;9.176;2023-02-27T14:50:35;10.90;99.70
63383;DHT22;49512;48.744;9.176;2023-02-27T14:55:31;10.90;99.70
63383;DHT22;49512;48.744;9.176;2023-02-27T15:00:39;10.90;99.60
63383;DHT22;49512;48.744;9.176;2023-02-27T15:03:11;10.90;99.60
63383;DHT22;49512;48.744;9.176;2023-02-27T15:05:40;10.90;99.50
63383;DHT22;49512;48.744;9.176;2023-02-27T15:08:06;10.90;99.50
63383;DHT22;49512;48.744;9.176;2023-02-27T15:10:36;10.90;99.30
63383;DHT22;49512;48.744;9.176;2023-02-27T15:13:06;10.90;99.40
63383;DHT22;49512;48.744;9.176;2023-02-27T15:15:31;10.90;99.30
63383;DHT22;49512;48.744;9.176;2023-02-27T15:17:57;10.90;99.30
63383;DHT22;49512;48.744;9.176;2023-02-27T15:22:49;10.90;99.20
63383;DHT22;49512;48.744;9.176;2023-02-27T15:27:56;10.90;99.10
63383;DHT22;49512;48.744;9.176;2023-02-27T15:30:24;10.90;99.10
63383;DHT22;49512;48.744;9.176;2023-02-27T15:32:49;10.90;99.00
63383;DHT22;49512;48.744;9.176;2023-02-27T15:35:19;10.90;98.90
63383;DHT22;49512;48.744;9.176;2023-02-27T15:37:49;10.90;98.80
63383;DHT22;49512;48.744;9.176;2023-02-27T15:40:18;10.90;98.80
63383;DHT22;49512;48.744;9.176;2023-02-27T15:42:44;10.90;98.70
63383;DHT22;49512;48.744;9.176;2023-02-27T15:45:10;10.90;98.60
63383;DHT22;49512;48.744;9.176;2023-02-27T15:47:41;10.90;98.60
63383;DHT22;49512;48.744;9.176;2023-02-27T15:52:38;10.80;98.70
63383;DHT22;49512;48.744;9.176;2023-02-27T15:55:05;10.80;98.70
63383;DHT22;49512;48.744;9.176;2023-02-27T15:57:34;10.90;98.50
63383;DHT22;49512;48.744;9.176;2023-02-27T15:59:59;10.90;98.70
63383;DHT22;49512;48.744;9.176;2023-02-27T16:02:26;10.80;98.70
63383;DHT22;49512;48.744;9.176;2023-02-27T16:04:53;10.90;98.70
63383;DHT22;49512;48.744;9.176;2023-02-27T16:07:22;10.90;98.70
63383;DHT22;49512;48.744;9.176;2023-02-27T16:09:53;10.90;98.80
63383;DHT22;49512;48.744;9.176;2023-02-27T16:12:29;10.90;98.80
63383;DHT22;49512;48.744;9.176;2023-02-27T16:17:41;10.90;98.60
63383;DHT22;49512;48.744;9.176;2023-02-27T16:23:21;10.90;98.50
63383;DHT22;49512;48.744;9.176;2023-02-27T16:28:43;10.90;98.60
63383;DHT22;49512;48.744;9.176;2023-02-27T16:31:19;10.90;98.70
63383;DHT22;49512;48.744;9.176;2023-02-27T16:33:46;10.90;98.80
63383;DHT22;49512;48.744;9.176;2023-02-27T16:36:16;10.90;98.60
63383;DHT22;49512;48.744;9.176;2023-02-27T16:38:42;10.80;99.00
63383;DHT22;49512;48.744;9.176;2023-02-27T16:41:10;10.90;98.70
63383;DHT22;49512;48.744;9.176;2023-02-27T16:43:35;10.80;98.60
63383;DHT22;49512;48.744;9.176;2023-02-27T16:46:01;10.80;98.60
63383;DHT22;49512;48.744;9.176;2023-02-27T16:48:26;10.90;98.60
63383;DHT22;49512;48.744;9.176;2023-02-27T16:50:52;10.90;98.40
63383;DHT22;49512;48.744;9.176;2023-02-27T16:53:17;10.80;98.30
63383;DHT22;49512;48.744;9.176;2023-02-27T16:55:45;10.80;98.30
63383;DHT22;49512;48.744;9.176;2023-02-27T16:58:13;10.80;98.50
63383;DHT22;49512;48.744;9.176;2023-02-27T17:00:43;10.80;98.40
63383;DHT22;49512;48.744;9.176;2023-02-27T17:03:08;10.80;98.30
63383;DHT22;49512;48.744;9.176;2023-02-27T17:05:34;10.80;98.40
63383;DHT22;49512;48.744;9.176;2023-02-27T17:08:00;10.80;98.20
63383;DHT22;49512;48.744;9.176;2023-02-27T17:10:25;10.90;98.20
63383;DHT22;49512;48.744;9.176;2023-02-27T17:12:51;10.90;98.20
63383;DHT22;49512;48.744;9.176;2023-02-27T17:15:17;10.80;98.10
63383;DHT22;49512;48.744;9.176;2023-02-27T17:17:43;10.80;98.10
63383;DHT22;49512;48.744;9.176;2023-02-27T17:20:09;10.90;98.20
63383;DHT22;49512;48.744;9.176;2023-02-27T17:22:35;10.90;98.10
63383;DHT22;49512;48.744;9.176;2023-02-27T17:25:01;10.80;97.90
63383;DHT22;49512;48.744;9.176;2023-02-27T17:27:27;10.80;97.80
63383;DHT22;49512;48.744;9.176;2023-02-27T17:29:55;10.90;97.80
63383;DHT22;49512;48.744;9.176;2023-02-27T17:32:21;10.80;98.00
63383;DHT22;49512;48.744;9.176;2023-02-27T17:34:46;10.80;98.00
63383;DHT22;49512;48.744;9.176;2023-02-27T17:37:12;10.90;97.90
63383;DHT22;49512;48.744;9.176;2023-02-27T17:39:37;10.90;98.00
63383;DHT22;49512;48.744;9.176;2023-02-27T17:42:03;10.80;98.00
63383;DHT22;49512;48.744;9.176;2023-02-27T17:44:29;10.90;97.90
63383;DHT22;49512;48.744;9.176;2023-02-27T17:46:54;10.90;97.80
63383;DHT22;49512;48.744;9.176;2023-02-27T17:49:20;10.90;97.90
63383;DHT22;49512;48.744;9.176;2023-02-27T17:51:46;10.90;98.00
63383;DHT22;49512;48.744;9.176;2023-02-27T17:54:14;10.90;98.10
63383;DHT22;49512;48.744;9.176;2023-02-27T17:56:40;10.90;98.10
63383;DHT22;49512;48.744;9.176;2023-02-27T17:59:05;10.90;98.40
63383;DHT22;49512;48.744;9.176;2023-02-27T18:01:33;10.90;98.40
63383;DHT22;49512;48.744;9.176;2023-02-27T18:04:00;10.90;98.60
63383;DHT22;49512;48.744;9.176;2023-02-27T18:06:26;11.00;98.60
63383;DHT22;49512;48.744;9.176;2023-02-27T18:08:52;11.00;98.70
63383;DHT22;49512;48.744;9.176;2023-02-27T18:11:19;11.00;98.80
63383;DHT22;49512;48.744;9.176;2023-02-27T18:13:45;11.00;98.80
63383;DHT22;49512;48.744;9.176;2023-02-27T18:16:11;11.20;98.90
63383;DHT22;49512;48.744;9.176;2023-02-27T18:18:37;11.10;99.90
63383;DHT22;49512;48.744;9.176;2023-02-27T18:21:06;11.00;99.90
63383;DHT22;49512;48.744;9.176;2023-02-27T18:23:36;11.00;99.90
63383;DHT22;49512;48.744;9.176;2023-02-27T18:26:02;11.00;99.90
63383;DHT22;49512;48.744;9.176;2023-02-27T18:28:27;11.00;99.90
63383;DHT22;49512;48.744;9.176;2023-02-27T18:30:53;11.00;99.90
63383;DHT22;49512;48.744;9.176;2023-02-27T18:33:19;11.00;99.90